sensor_id;sensor_type;location;lat;lon;timestamp;temperature;humidity
26503;DHT22;14177;51.520;6.764;2023-06-14T00:02:15;20.00;62.60
26503;DHT22;14177;51.520;6.764;2023-06-14T00:04:42;19.90;62.60
26503;DHT22;14177;51.520;6.764;2023-06-14T00:07:10;19.90;62.50
26503;DHT22;14177;51.520;6.764;2023-06-14T00:09:40;19.90;62.60
26503;DHT22;14177;51.520;6.764;2023-06-14T00:12:08;19.90;62.80
26503;DHT22;14177;51.520;6.764;2023-06-14T00:14:35;19.80;62.90
26503;DHT22;14177;51.520;6.764;2023-06-14T00:17:03;19.80;63.10
26503;DHT22;14177;51.520;6.764;2023-06-14T00:19:30;19.70;63.10
26503;DHT22;14177;51.520;6.764;2023-06-14T00:21:59;19.70;63.20
26503;DHT22;14177;51.520;6.764;2023-06-14T00:24:26;19.70;63.40
26503;DHT22;14177;51.520;6.764;2023-06-14T00:26:53;19.60;63.40
26503;DHT22;14177;51.520;6.764;2023-06-14T00:29:21;19.60;63.50
26503;DHT22;14177;51.520;6.764;2023-06-14T00:31:48;19.60;63.60
26503;DHT22;14177;51.520;6.764;2023-06-14T00:34:17;19.50;63.50
26503;DHT22;14177;51.520;6.764;2023-06-14T00:36:44;19.50;63.30
26503;DHT22;14177;51.520;6.764;2023-06-14T00:39:13;19.50;63.40
26503;DHT22;14177;51.520;6.764;2023-06-14T00:41:40;19.50;63.50
26503;DHT22;14177;51.520;6.764;2023-06-14T00:44:07;19.40;63.20
26503;DHT22;14177;51.520;6.764;2023-06-14T00:46:34;19.50;63.30
26503;DHT22;14177;51.520;6.764;2023-06-14T00:49:01;19.40;63.50
26503;DHT22;14177;51.520;6.764;2023-06-14T00:51:29;19.40;63.50
26503;DHT22;14177;51.520;6.764;2023-06-14T00:53:56;19.30;63.30
26503;DHT22;14177;51.520;6.764;2023-06-14T00:56:23;19.30;63.60
26503;DHT22;14177;51.520;6.764;2023-06-14T00:58:51;19.30;63.70
26503;DHT22;14177;51.520;6.764;2023-06-14T01:01:18;19.30;63.80
26503;DHT22;14177;51.520;6.764;2023-06-14T01:03:46;19.20;63.40
26503;DHT22;14177;51.520;6.764;2023-06-14T01:06:19;19.20;63.40
26503;DHT22;14177;51.520;6.764;2023-06-14T01:08:59;19.20;63.50
26503;DHT22;14177;51.520;6.764;2023-06-14T01:11:54;19.10;63.50
26503;DHT22;14177;51.520;6.764;2023-06-14T01:14:29;19.10;63.40
26503;DHT22;14177;51.520;6.764;2023-06-14T01:16:58;19.10;63.10
26503;DHT22;14177;51.520;6.764;2023-06-14T01:19:27;19.10;63.20
26503;DHT22;14177;51.520;6.764;2023-06-14T01:21:57;19.00;63.10
26503;DHT22;14177;51.520;6.764;2023-06-14T01:24:27;19.00;63.10
26503;DHT22;14177;51.520;6.764;2023-06-14T01:26:58;19.00;63.10
26503;DHT22;14177;51.520;6.764;2023-06-14T01:29:27;19.00;63.10
26503;DHT22;14177;51.520;6.764;2023-06-14T01:31:59;18.90;63.00
26503;DHT22;14177;51.520;6.764;2023-06-14T01:34:30;18.90;63.00
26503;DHT22;14177;51.520;6.764;2023-06-14T01:36:58;18.90;62.90
26503;DHT22;14177;51.520;6.764;2023-06-14T01:39:27;18.90;62.90
26503;DHT22;14177;51.520;6.764;2023-06-14T01:41:54;18.90;62.60
26503;DHT22;14177;51.520;6.764;2023-06-14T01:44:22;18.90;62.60
26503;DHT22;14177;51.520;6.764;2023-06-14T01:46:49;18.90;62.40
26503;DHT22;14177;51.520;6.764;2023-06-14T01:49:17;18.90;62.70
26503;DHT22;14177;51.520;6.764;2023-06-14T01:51:44;18.90;62.50
26503;DHT22;14177;51.520;6.764;2023-06-14T01:54:11;18.80;62.30
26503;DHT22;14177;51.520;6.764;2023-06-14T01:56:38;18.80;62.20
26503;DHT22;14177;51.520;6.764;2023-06-14T01:59:05;18.80;62.20
26503;DHT22;14177;51.520;6.764;2023-06-14T02:01:32;18.80;62.20
26503;DHT22;14177;51.520;6.764;2023-06-14T02:04:01;18.80;62.40
26503;DHT22;14177;51.520;6.764;2023-06-14T02:06:28;18.80;62.30
26503;DHT22;14177;51.520;6.764;2023-06-14T02:08:55;18.70;62.30
26503;DHT22;14177;51.520;6.764;2023-06-14T02:11:22;18.70;62.00
26503;DHT22;14177;51.520;6.764;2023-06-14T02:13:49;18.70;62.20
26503;DHT22;14177;51.520;6.764;2023-06-14T02:16:17;18.70;62.20
26503;DHT22;14177;51.520;6.764;2023-06-14T02:18:44;18.70;62.20
26503;DHT22;14177;51.520;6.764;2023-06-14T02:21:11;18.70;62.20
26503;DHT22;14177;51.520;6.764;2023-06-14T02:23:38;18.70;62.30
26503;DHT22;14177;51.520;6.764;2023-06-14T02:26:05;18.60;62.30
26503;DHT22;14177;51.520;6.764;2023-06-14T02:28:33;18.70;62.20
26503;DHT22;14177;51.520;6.764;2023-06-14T02:31:02;18.60;62.30
26503;DHT22;14177;51.520;6.764;2023-06-14T02:33:29;18.60;62.30
26503;DHT22;14177;51.520;6.764;2023-06-14T02:35:56;18.60;62.40
26503;DHT22;14177;51.520;6.764;2023-06-14T02:38:23;18.60;62.50
26503;DHT22;14177;51.520;6.764;2023-06-14T02:40:50;18.60;62.40
26503;DHT22;14177;51.520;6.764;2023-06-14T02:43:19;18.50;62.50
26503;DHT22;14177;51.520;6.764;2023-06-14T02:45:46;18.50;62.60
26503;DHT22;14177;51.520;6.764;2023-06-14T02:48:13;18.50;62.70
26503;DHT22;14177;51.520;6.764;2023-06-14T02:50:40;18.50;62.70
26503;DHT22;14177;51.520;6.764;2023-06-14T02:53:07;18.50;62.90
26503;DHT22;14177;51.520;6.764;2023-06-14T02:55:35;18.40;62.80
26503;DHT22;14177;51.520;6.764;2023-06-14T02:58:07;18.40;62.90
26503;DHT22;14177;51.520;6.764;2023-06-14T03:00:34;18.40;63.00
26503;DHT22;14177;51.520;6.764;2023-06-14T03:03:03;18.40;63.10
26503;DHT22;14177;51.520;6.764;2023-06-14T03:05:32;18.30;63.20
26503;DHT22;14177;51.520;6.764;2023-06-14T03:07:59;18.30;63.10
26503;DHT22;14177;51.520;6.764;2023-06-14T03:10:26;18.30;63.30
26503;DHT22;14177;51.520;6.764;2023-06-14T03:12:57;18.30;63.50
26503;DHT22;14177;51.520;6.764;2023-06-14T03:15:25;18.30;64.10
26503;DHT22;14177;51.520;6.764;2023-06-14T03:17:52;18.20;63.50
26503;DHT22;14177;51.520;6.764;2023-06-14T03:20:20;18.20;64.10
26503;DHT22;14177;51.520;6.764;2023-06-14T03:22:47;18.20;63.70
26503;DHT22;14177;51.520;6.764;2023-06-14T03:25:15;18.10;63.70
26503;DHT22;14177;51.520;6.764;2023-06-14T03:27:46;18.10;63.90
26503;DHT22;14177;51.520;6.764;2023-06-14T03:30:13;18.10;64.00
26503;DHT22;14177;51.520;6.764;2023-06-14T03:32:43;18.10;64.10
26503;DHT22;14177;51.520;6.764;2023-06-14T03:35:10;18.10;64.10
26503;DHT22;14177;51.520;6.764;2023-06-14T03:37:45;18.00;64.20
26503;DHT22;14177;51.520;6.764;2023-06-14T03:40:14;18.00;64.40
26503;DHT22;14177;51.520;6.764;2023-06-14T03:42:47;18.00;64.40
26503;DHT22;14177;51.520;6.764;2023-06-14T03:45:14;17.90;64.30
26503;DHT22;14177;51.520;6.764;2023-06-14T03:47:41;18.00;64.70
26503;DHT22;14177;51.520;6.764;2023-06-14T03:50:08;18.00;64.40
26503;DHT22;14177;51.520;6.764;2023-06-14T03:52:35;18.00;64.60
26503;DHT22;14177;51.520;6.764;2023-06-14T03:55:03;18.00;64.70
26503;DHT22;14177;51.520;6.764;2023-06-14T03:57:34;18.00;64.80
26503;DHT22;14177;51.520;6.764;2023-06-14T04:00:01;17.90;64.80
26503;DHT22;14177;51.520;6.764;2023-06-14T04:02:39;17.90;64.80
26503;DHT22;14177;51.520;6.764;2023-06-14T04:05:09;17.90;64.90
26503;DHT22;14177;51.520;6.764;2023-06-14T04:07:38;18.00;65.00
26503;DHT22;14177;51.520;6.764;2023-06-14T04:10:12;18.00;64.90
26503;DHT22;14177;51.520;6.764;2023-06-14T04:12:39;18.00;65.20
26503;DHT22;14177;51.520;6.764;2023-06-14T04:15:10;18.00;65.30
26503;DHT22;14177;51.520;6.764;2023-06-14T04:17:47;18.00;65.20
26503;DHT22;14177;51.520;6.764;2023-06-14T04:20:16;18.00;65.30
26503;DHT22;14177;51.520;6.764;2023-06-14T04:22:44;18.00;65.30
26503;DHT22;14177;51.520;6.764;2023-06-14T04:25:11;18.00;65.30
26503;DHT22;14177;51.520;6.764;2023-06-14T04:27:40;18.00;65.30
26503;DHT22;14177;51.520;6.764;2023-06-14T04:30:09;18.10;65.40
26503;DHT22;14177;51.520;6.764;2023-06-14T04:32:42;18.10;65.50
26503;DHT22;14177;51.520;6.764;2023-06-14T04:35:11;18.10;65.40
26503;DHT22;14177;51.520;6.764;2023-06-14T04:37:41;18.10;65.30
26503;DHT22;14177;51.520;6.764;2023-06-14T04:40:10;18.10;65.40
26503;DHT22;14177;51.520;6.764;2023-06-14T04:42:39;18.10;65.40
26503;DHT22;14177;51.520;6.764;2023-06-14T04:45:09;18.20;65.40
26503;DHT22;14177;51.520;6.764;2023-06-14T04:47:38;18.20;65.40
26503;DHT22;14177;51.520;6.764;2023-06-14T04:50:06;18.20;65.60
26503;DHT22;14177;51.520;6.764;2023-06-14T04:52:33;18.20;65.60
26503;DHT22;14177;51.520;6.764;2023-06-14T04:55:03;18.30;65.80
26503;DHT22;14177;51.520;6.764;2023-06-14T04:57:32;18.30;65.70
26503;DHT22;14177;51.520;6.764;2023-06-14T04:59:59;18.30;65.70
26503;DHT22;14177;51.520;6.764;2023-06-14T05:02:29;18.40;65.70
26503;DHT22;14177;51.520;6.764;2023-06-14T05:04:58;18.40;65.70
26503;DHT22;14177;51.520;6.764;2023-06-14T05:07:26;18.40;65.80
26503;DHT22;14177;51.520;6.764;2023-06-14T05:09:53;18.50;65.80
26503;DHT22;14177;51.520;6.764;2023-06-14T05:12:20;18.50;65.90
26503;DHT22;14177;51.520;6.764;2023-06-14T05:14:48;18.50;66.10
26503;DHT22;14177;51.520;6.764;2023-06-14T05:17:18;18.60;66.10
26503;DHT22;14177;51.520;6.764;2023-06-14T05:19:44;18.60;65.90
26503;DHT22;14177;51.520;6.764;2023-06-14T05:22:12;18.70;65.80
26503;DHT22;14177;51.520;6.764;2023-06-14T05:24:38;18.70;65.70
26503;DHT22;14177;51.520;6.764;2023-06-14T05:27:05;18.80;65.70
26503;DHT22;14177;51.520;6.764;2023-06-14T05:29:33;18.80;65.60
26503;DHT22;14177;51.520;6.764;2023-06-14T05:32:00;18.80;65.50
26503;DHT22;14177;51.520;6.764;2023-06-14T05:34:27;18.90;65.60
26503;DHT22;14177;51.520;6.764;2023-06-14T05:36:54;18.90;65.50
26503;DHT22;14177;51.520;6.764;2023-06-14T05:39:22;18.90;65.60
26503;DHT22;14177;51.520;6.764;2023-06-14T05:41:50;19.00;65.60
26503;DHT22;14177;51.520;6.764;2023-06-14T05:44:17;19.00;65.40
26503;DHT22;14177;51.520;6.764;2023-06-14T05:46:44;19.00;65.40
26503;DHT22;14177;51.520;6.764;2023-06-14T05:49:11;19.10;65.30
26503;DHT22;14177;51.520;6.764;2023-06-14T05:51:38;19.20;65.40
26503;DHT22;14177;51.520;6.764;2023-06-14T05:54:05;19.30;65.20
26503;DHT22;14177;51.520;6.764;2023-06-14T05:56:33;19.40;65.80
26503;DHT22;14177;51.520;6.764;2023-06-14T05:59:00;19.50;65.20
26503;DHT22;14177;51.520;6.764;2023-06-14T06:01:27;19.60;65.30
26503;DHT22;14177;51.520;6.764;2023-06-14T06:03:54;19.70;65.20
26503;DHT22;14177;51.520;6.764;2023-06-14T06:06:21;19.80;64.90
26503;DHT22;14177;51.520;6.764;2023-06-14T06:08:48;19.90;64.80
26503;DHT22;14177;51.520;6.764;2023-06-14T06:11:15;20.00;64.80
26503;DHT22;14177;51.520;6.764;2023-06-14T06:13:42;20.00;64.60
26503;DHT22;14177;51.520;6.764;2023-06-14T06:16:09;20.10;64.40
26503;DHT22;14177;51.520;6.764;2023-06-14T06:18:36;20.20;64.30
26503;DHT22;14177;51.520;6.764;2023-06-14T06:21:04;20.30;64.20
26503;DHT22;14177;51.520;6.764;2023-06-14T06:23:31;20.30;64.20
26503;DHT22;14177;51.520;6.764;2023-06-14T06:25:58;20.40;63.70
26503;DHT22;14177;51.520;6.764;2023-06-14T06:28:25;20.40;63.60
26503;DHT22;14177;51.520;6.764;2023-06-14T06:30:52;20.50;63.40
26503;DHT22;14177;51.520;6.764;2023-06-14T06:33:20;20.60;63.20
26503;DHT22;14177;51.520;6.764;2023-06-14T06:35:47;20.70;63.30
26503;DHT22;14177;51.520;6.764;2023-06-14T06:38:14;20.80;62.40
26503;DHT22;14177;51.520;6.764;2023-06-14T06:40:41;20.80;62.00
26503;DHT22;14177;51.520;6.764;2023-06-14T06:43:08;20.80;61.80
26503;DHT22;14177;51.520;6.764;2023-06-14T06:45:41;20.90;61.70
26503;DHT22;14177;51.520;6.764;2023-06-14T06:48:08;21.00;61.50
26503;DHT22;14177;51.520;6.764;2023-06-14T06:50:38;21.10;61.70
26503;DHT22;14177;51.520;6.764;2023-06-14T06:53:05;21.20;60.90
26503;DHT22;14177;51.520;6.764;2023-06-14T06:55:33;21.30;60.80
26503;DHT22;14177;51.520;6.764;2023-06-14T06:58:02;21.40;61.30
26503;DHT22;14177;51.520;6.764;2023-06-14T07:00:40;21.60;60.90
26503;DHT22;14177;51.520;6.764;2023-06-14T07:06:26;21.70;60.10
26503;DHT22;14177;51.520;6.764;2023-06-14T07:09:16;21.80;59.90
26503;DHT22;14177;51.520;6.764;2023-06-14T07:11:45;21.90;60.10
26503;DHT22;14177;51.520;6.764;2023-06-14T07:14:16;22.00;59.80
26503;DHT22;14177;51.520;6.764;2023-06-14T07:16:50;22.20;59.40
26503;DHT22;14177;51.520;6.764;2023-06-14T07:20:09;22.30;59.80
26503;DHT22;14177;51.520;6.764;2023-06-14T07:23:02;22.40;59.60
26503;DHT22;14177;51.520;6.764;2023-06-14T07:25:44;22.50;58.70
26503;DHT22;14177;51.520;6.764;2023-06-14T07:28:28;22.60;58.60
26503;DHT22;14177;51.520;6.764;2023-06-14T07:32:20;22.60;58.20
26503;DHT22;14177;51.520;6.764;2023-06-14T07:34:57;22.70;59.00
26503;DHT22;14177;51.520;6.764;2023-06-14T07:37:32;22.80;58.50
26503;DHT22;14177;51.520;6.764;2023-06-14T07:40:09;22.80;58.20
26503;DHT22;14177;51.520;6.764;2023-06-14T07:42:59;22.90;58.00
26503;DHT22;14177;51.520;6.764;2023-06-14T07:46:16;23.00;57.90
26503;DHT22;14177;51.520;6.764;2023-06-14T07:48:59;23.20;58.00
26503;DHT22;14177;51.520;6.764;2023-06-14T07:51:33;23.30;57.50
26503;DHT22;14177;51.520;6.764;2023-06-14T07:54:05;23.40;57.00
26503;DHT22;14177;51.520;6.764;2023-06-14T07:56:35;23.40;57.30
26503;DHT22;14177;51.520;6.764;2023-06-14T07:59:02;23.50;57.20
26503;DHT22;14177;51.520;6.764;2023-06-14T08:01:31;23.50;56.60
26503;DHT22;14177;51.520;6.764;2023-06-14T08:03:58;23.50;56.90
26503;DHT22;14177;51.520;6.764;2023-06-14T08:06:25;23.60;56.70
26503;DHT22;14177;51.520;6.764;2023-06-14T08:08:52;23.70;57.00
26503;DHT22;14177;51.520;6.764;2023-06-14T08:11:19;23.70;56.50
26503;DHT22;14177;51.520;6.764;2023-06-14T08:13:47;23.80;56.50
26503;DHT22;14177;51.520;6.764;2023-06-14T08:16:14;23.90;56.10
26503;DHT22;14177;51.520;6.764;2023-06-14T08:18:41;24.10;56.20
26503;DHT22;14177;51.520;6.764;2023-06-14T08:21:09;24.20;56.60
26503;DHT22;14177;51.520;6.764;2023-06-14T08:23:36;24.30;56.10
26503;DHT22;14177;51.520;6.764;2023-06-14T08:26:03;24.40;56.20
26503;DHT22;14177;51.520;6.764;2023-06-14T08:28:30;24.60;56.20
26503;DHT22;14177;51.520;6.764;2023-06-14T08:30:57;24.80;56.00
26503;DHT22;14177;51.520;6.764;2023-06-14T08:33:24;24.90;55.70
26503;DHT22;14177;51.520;6.764;2023-06-14T08:35:51;25.10;55.90
26503;DHT22;14177;51.520;6.764;2023-06-14T08:38:19;25.30;56.40
26503;DHT22;14177;51.520;6.764;2023-06-14T08:40:48;25.50;56.50
26503;DHT22;14177;51.520;6.764;2023-06-14T08:43:18;25.60;54.50
26503;DHT22;14177;51.520;6.764;2023-06-14T08:45:46;25.80;53.80
26503;DHT22;14177;51.520;6.764;2023-06-14T08:48:15;25.80;53.80
26503;DHT22;14177;51.520;6.764;2023-06-14T08:50:44;25.90;53.70
26503;DHT22;14177;51.520;6.764;2023-06-14T08:53:13;25.90;53.90
26503;DHT22;14177;51.520;6.764;2023-06-14T08:55:46;25.90;53.10
26503;DHT22;14177;51.520;6.764;2023-06-14T08:58:15;26.00;53.50
26503;DHT22;14177;51.520;6.764;2023-06-14T09:00:42;26.00;53.70
26503;DHT22;14177;51.520;6.764;2023-06-14T09:03:10;26.10;53.90
26503;DHT22;14177;51.520;6.764;2023-06-14T09:05:40;26.30;53.70
26503;DHT22;14177;51.520;6.764;2023-06-14T09:08:08;26.60;54.00
26503;DHT22;14177;51.520;6.764;2023-06-14T09:10:34;26.80;52.80
26503;DHT22;14177;51.520;6.764;2023-06-14T09:13:04;26.80;52.20
26503;DHT22;14177;51.520;6.764;2023-06-14T09:15:32;26.90;53.20
26503;DHT22;14177;51.520;6.764;2023-06-14T09:18:01;27.00;53.00
26503;DHT22;14177;51.520;6.764;2023-06-14T09:20:30;27.20;51.50
26503;DHT22;14177;51.520;6.764;2023-06-14T09:22:57;27.20;51.70
26503;DHT22;14177;51.520;6.764;2023-06-14T09:25:25;27.30;51.00
26503;DHT22;14177;51.520;6.764;2023-06-14T09:28:08;27.30;51.60
26503;DHT22;14177;51.520;6.764;2023-06-14T09:43:42;28.10;50.20
26503;DHT22;14177;51.520;6.764;2023-06-14T09:46:12;28.10;50.10
26503;DHT22;14177;51.520;6.764;2023-06-14T09:48:39;28.20;50.50
26503;DHT22;14177;51.520;6.764;2023-06-14T09:51:10;28.20;49.80
26503;DHT22;14177;51.520;6.764;2023-06-14T09:53:41;28.40;49.20
26503;DHT22;14177;51.520;6.764;2023-06-14T09:56:11;28.40;49.40
26503;DHT22;14177;51.520;6.764;2023-06-14T09:58:57;28.50;49.40
26503;DHT22;14177;51.520;6.764;2023-06-14T10:01:31;28.50;49.30
26503;DHT22;14177;51.520;6.764;2023-06-14T10:04:01;28.50;49.40
26503;DHT22;14177;51.520;6.764;2023-06-14T10:06:43;28.70;49.10
26503;DHT22;14177;51.520;6.764;2023-06-14T10:09:12;28.80;48.20
26503;DHT22;14177;51.520;6.764;2023-06-14T10:11:40;28.90;47.30
26503;DHT22;14177;51.520;6.764;2023-06-14T10:14:11;28.90;47.20
26503;DHT22;14177;51.520;6.764;2023-06-14T10:17:03;28.90;47.60
26503;DHT22;14177;51.520;6.764;2023-06-14T10:19:46;29.00;47.60
26503;DHT22;14177;51.520;6.764;2023-06-14T10:24:59;29.00;47.90
26503;DHT22;14177;51.520;6.764;2023-06-14T10:27:29;28.80;47.20
26503;DHT22;14177;51.520;6.764;2023-06-14T10:32:24;29.10;47.60
26503;DHT22;14177;51.520;6.764;2023-06-14T10:34:59;29.20;47.70
26503;DHT22;14177;51.520;6.764;2023-06-14T10:37:27;29.30;47.30
26503;DHT22;14177;51.520;6.764;2023-06-14T10:39:54;29.40;47.30
26503;DHT22;14177;51.520;6.764;2023-06-14T10:42:21;29.40;46.70
26503;DHT22;14177;51.520;6.764;2023-06-14T10:47:36;29.30;46.80
26503;DHT22;14177;51.520;6.764;2023-06-14T10:50:27;29.00;47.10
26503;DHT22;14177;51.520;6.764;2023-06-14T10:53:22;29.20;47.60
26503;DHT22;14177;51.520;6.764;2023-06-14T10:55:56;29.40;47.30
26503;DHT22;14177;51.520;6.764;2023-06-14T10:58:32;29.60;47.00
26503;DHT22;14177;51.520;6.764;2023-06-14T11:01:14;29.80;46.70
26503;DHT22;14177;51.520;6.764;2023-06-14T11:03:55;29.80;47.00
26503;DHT22;14177;51.520;6.764;2023-06-14T11:06:29;29.80;47.00
26503;DHT22;14177;51.520;6.764;2023-06-14T11:12:31;29.70;47.10
26503;DHT22;14177;51.520;6.764;2023-06-14T11:15:05;29.70;46.60
26503;DHT22;14177;51.520;6.764;2023-06-14T11:17:52;29.80;46.90
26503;DHT22;14177;51.520;6.764;2023-06-14T11:20:34;29.70;46.50
26503;DHT22;14177;51.520;6.764;2023-06-14T11:23:03;29.70;47.40
26503;DHT22;14177;51.520;6.764;2023-06-14T11:25:30;29.70;46.70
26503;DHT22;14177;51.520;6.764;2023-06-14T11:27:58;29.80;46.60
26503;DHT22;14177;51.520;6.764;2023-06-14T11:30:27;30.00;47.30
26503;DHT22;14177;51.520;6.764;2023-06-14T11:32:54;30.10;46.50
26503;DHT22;14177;51.520;6.764;2023-06-14T11:35:25;30.20;47.40
26503;DHT22;14177;51.520;6.764;2023-06-14T11:37:53;30.50;46.90
26503;DHT22;14177;51.520;6.764;2023-06-14T11:40:26;30.70;46.70
26503;DHT22;14177;51.520;6.764;2023-06-14T11:43:00;30.60;46.40
26503;DHT22;14177;51.520;6.764;2023-06-14T11:45:28;30.70;46.90
26503;DHT22;14177;51.520;6.764;2023-06-14T11:47:57;30.80;46.70
26503;DHT22;14177;51.520;6.764;2023-06-14T11:50:25;30.60;45.50
26503;DHT22;14177;51.520;6.764;2023-06-14T11:52:59;30.60;46.30
26503;DHT22;14177;51.520;6.764;2023-06-14T11:55:36;30.60;46.20
26503;DHT22;14177;51.520;6.764;2023-06-14T11:58:04;30.40;45.90
26503;DHT22;14177;51.520;6.764;2023-06-14T12:00:31;30.20;45.90
26503;DHT22;14177;51.520;6.764;2023-06-14T12:02:58;30.40;46.40
26503;DHT22;14177;51.520;6.764;2023-06-14T12:05:25;30.40;46.40
26503;DHT22;14177;51.520;6.764;2023-06-14T12:07:59;30.50;46.70
26503;DHT22;14177;51.520;6.764;2023-06-14T12:10:27;30.70;46.70
26503;DHT22;14177;51.520;6.764;2023-06-14T12:12:58;30.80;47.10
26503;DHT22;14177;51.520;6.764;2023-06-14T12:15:29;31.00;46.40
26503;DHT22;14177;51.520;6.764;2023-06-14T12:17:57;31.00;45.90
26503;DHT22;14177;51.520;6.764;2023-06-14T12:20:28;31.00;46.10
26503;DHT22;14177;51.520;6.764;2023-06-14T12:22:58;31.10;46.70
26503;DHT22;14177;51.520;6.764;2023-06-14T12:28:03;31.10;46.00
26503;DHT22;14177;51.520;6.764;2023-06-14T12:30:33;31.20;46.30
26503;DHT22;14177;51.520;6.764;2023-06-14T12:33:02;31.20;45.80
26503;DHT22;14177;51.520;6.764;2023-06-14T12:35:33;31.10;45.60
26503;DHT22;14177;51.520;6.764;2023-06-14T12:38:00;31.10;46.20
26503;DHT22;14177;51.520;6.764;2023-06-14T12:40:27;31.10;46.40
26503;DHT22;14177;51.520;6.764;2023-06-14T12:42:53;31.10;46.00
26503;DHT22;14177;51.520;6.764;2023-06-14T12:45:20;31.20;45.70
26503;DHT22;14177;51.520;6.764;2023-06-14T12:47:51;31.00;45.80
26503;DHT22;14177;51.520;6.764;2023-06-14T12:50:19;30.80;46.00
26503;DHT22;14177;51.520;6.764;2023-06-14T12:52:51;31.00;46.50
26503;DHT22;14177;51.520;6.764;2023-06-14T12:55:18;31.00;46.00
26503;DHT22;14177;51.520;6.764;2023-06-14T12:57:46;31.00;46.10
26503;DHT22;14177;51.520;6.764;2023-06-14T13:00:16;31.00;46.00
26503;DHT22;14177;51.520;6.764;2023-06-14T13:02:44;30.80;46.20
26503;DHT22;14177;51.520;6.764;2023-06-14T13:05:13;30.80;45.50
26503;DHT22;14177;51.520;6.764;2023-06-14T13:07:41;30.80;45.80
26503;DHT22;14177;51.520;6.764;2023-06-14T13:10:08;31.10;45.60
26503;DHT22;14177;51.520;6.764;2023-06-14T13:12:36;31.10;46.10
26503;DHT22;14177;51.520;6.764;2023-06-14T13:15:03;31.00;45.70
26503;DHT22;14177;51.520;6.764;2023-06-14T13:17:32;31.00;46.00
26503;DHT22;14177;51.520;6.764;2023-06-14T13:20:02;31.10;46.10
26503;DHT22;14177;51.520;6.764;2023-06-14T13:22:29;31.20;45.90
26503;DHT22;14177;51.520;6.764;2023-06-14T13:24:56;31.30;46.20
26503;DHT22;14177;51.520;6.764;2023-06-14T13:27:23;31.30;45.70
26503;DHT22;14177;51.520;6.764;2023-06-14T13:29:51;31.30;45.60
26503;DHT22;14177;51.520;6.764;2023-06-14T13:32:18;31.20;45.80
26503;DHT22;14177;51.520;6.764;2023-06-14T13:34:45;31.10;45.40
26503;DHT22;14177;51.520;6.764;2023-06-14T13:37:12;30.90;46.30
26503;DHT22;14177;51.520;6.764;2023-06-14T13:39:39;31.10;46.00
26503;DHT22;14177;51.520;6.764;2023-06-14T13:42:07;31.30;46.70
26503;DHT22;14177;51.520;6.764;2023-06-14T13:44:35;31.40;46.10
26503;DHT22;14177;51.520;6.764;2023-06-14T13:47:02;31.60;45.90
26503;DHT22;14177;51.520;6.764;2023-06-14T13:49:30;31.80;46.70
26503;DHT22;14177;51.520;6.764;2023-06-14T13:52:01;31.90;45.50
26503;DHT22;14177;51.520;6.764;2023-06-14T13:54:28;31.70;45.20
26503;DHT22;14177;51.520;6.764;2023-06-14T13:56:56;31.60;45.30
26503;DHT22;14177;51.520;6.764;2023-06-14T13:59:23;31.50;45.60
26503;DHT22;14177;51.520;6.764;2023-06-14T14:01:50;31.40;45.60
26503;DHT22;14177;51.520;6.764;2023-06-14T14:04:17;31.40;45.50
26503;DHT22;14177;51.520;6.764;2023-06-14T14:06:47;31.10;45.80
26503;DHT22;14177;51.520;6.764;2023-06-14T14:09:15;31.00;45.70
26503;DHT22;14177;51.520;6.764;2023-06-14T14:11:42;31.00;45.50
26503;DHT22;14177;51.520;6.764;2023-06-14T14:14:09;31.10;46.40
26503;DHT22;14177;51.520;6.764;2023-06-14T14:16:40;31.20;45.40
26503;DHT22;14177;51.520;6.764;2023-06-14T14:19:09;31.50;45.30
26503;DHT22;14177;51.520;6.764;2023-06-14T14:21:45;31.60;45.20
26503;DHT22;14177;51.520;6.764;2023-06-14T14:24:25;31.70;45.70
26503;DHT22;14177;51.520;6.764;2023-06-14T14:27:06;31.80;45.00
26503;DHT22;14177;51.520;6.764;2023-06-14T14:29:48;31.70;44.80
26503;DHT22;14177;51.520;6.764;2023-06-14T14:32:15;31.60;44.50
26503;DHT22;14177;51.520;6.764;2023-06-14T14:34:56;31.60;45.40
26503;DHT22;14177;51.520;6.764;2023-06-14T14:37:37;31.70;46.20
26503;DHT22;14177;51.520;6.764;2023-06-14T14:40:17;31.60;45.50
26503;DHT22;14177;51.520;6.764;2023-06-14T14:42:46;31.50;45.30
26503;DHT22;14177;51.520;6.764;2023-06-14T14:45:31;31.60;46.30
26503;DHT22;14177;51.520;6.764;2023-06-14T14:48:02;31.60;45.70
26503;DHT22;14177;51.520;6.764;2023-06-14T14:50:43;31.70;45.50
26503;DHT22;14177;51.520;6.764;2023-06-14T14:53:45;31.80;46.30
26503;DHT22;14177;51.520;6.764;2023-06-14T14:56:26;32.00;45.00
26503;DHT22;14177;51.520;6.764;2023-06-14T14:59:14;31.80;45.10
26503;DHT22;14177;51.520;6.764;2023-06-14T15:01:55;31.30;45.20
26503;DHT22;14177;51.520;6.764;2023-06-14T15:04:22;31.10;46.20
26503;DHT22;14177;51.520;6.764;2023-06-14T15:06:49;31.20;45.90
26503;DHT22;14177;51.520;6.764;2023-06-14T15:09:16;31.40;45.50
26503;DHT22;14177;51.520;6.764;2023-06-14T15:11:43;31.40;45.70
26503;DHT22;14177;51.520;6.764;2023-06-14T15:14:11;31.20;45.90
26503;DHT22;14177;51.520;6.764;2023-06-14T15:16:38;31.20;45.50
26503;DHT22;14177;51.520;6.764;2023-06-14T15:19:05;31.20;45.80
26503;DHT22;14177;51.520;6.764;2023-06-14T15:21:32;31.30;45.80
26503;DHT22;14177;51.520;6.764;2023-06-14T15:23:59;31.30;45.70
26503;DHT22;14177;51.520;6.764;2023-06-14T15:26:26;31.30;45.40
26503;DHT22;14177;51.520;6.764;2023-06-14T15:28:54;31.20;45.30
26503;DHT22;14177;51.520;6.764;2023-06-14T15:31:20;31.10;45.50
26503;DHT22;14177;51.520;6.764;2023-06-14T15:33:49;31.00;45.70
26503;DHT22;14177;51.520;6.764;2023-06-14T15:36:16;30.80;45.80
26503;DHT22;14177;51.520;6.764;2023-06-14T15:38:43;30.80;45.80
26503;DHT22;14177;51.520;6.764;2023-06-14T15:41:10;30.80;45.80
26503;DHT22;14177;51.520;6.764;2023-06-14T15:43:37;30.80;46.10
26503;DHT22;14177;51.520;6.764;2023-06-14T15:46:04;30.70;45.70
26503;DHT22;14177;51.520;6.764;2023-06-14T15:48:31;30.60;45.60
26503;DHT22;14177;51.520;6.764;2023-06-14T15:50:58;30.60;46.00
26503;DHT22;14177;51.520;6.764;2023-06-14T15:53:25;30.60;46.10
26503;DHT22;14177;51.520;6.764;2023-06-14T15:55:51;30.60;46.20
26503;DHT22;14177;51.520;6.764;2023-06-14T15:58:18;30.70;46.30
26503;DHT22;14177;51.520;6.764;2023-06-14T16:00:45;30.70;46.40
26503;DHT22;14177;51.520;6.764;2023-06-14T16:03:12;30.70;46.10
26503;DHT22;14177;51.520;6.764;2023-06-14T16:05:39;30.70;45.80
26503;DHT22;14177;51.520;6.764;2023-06-14T16:08:06;30.60;45.90
26503;DHT22;14177;51.520;6.764;2023-06-14T16:10:34;30.30;45.90
26503;DHT22;14177;51.520;6.764;2023-06-14T16:13:01;30.20;46.00
26503;DHT22;14177;51.520;6.764;2023-06-14T16:15:28;30.10;45.90
26503;DHT22;14177;51.520;6.764;2023-06-14T16:17:55;30.00;46.00
26503;DHT22;14177;51.520;6.764;2023-06-14T16:20:22;30.00;46.60